Time;durP1;ratioP1;P1;durP2;ratioP2;P2;SDS_P1;SDS_P2;PMS_P1;PMS_P2;Temp;Humidity;BMP_temperature;BMP_pressure;BME280_temperature;BME280_humidity;BME280_pressure;Samples;Min_cycle;Max_cycle;Signal;HPM_P1;HPM_P2
2022/05/23 00:00:25;;;;;;;6.15;2.60;;;;;;;15.68;77.73;100051.28;688479;28;1183;-81
2022/05/23 00:00:46;;;;;;;5.68;2.50;;;;;;;15.63;77.83;100067.28;684476;28;1316;-81
2022/05/23 00:01:09;;;;;;;5.43;2.80;;;;;;;15.65;78.46;100051.41;684783;28;4357;-81
2022/05/23 00:01:30;;;;;;;4.85;2.67;;;;;;;15.62;78.80;100073.44;683516;28;1558;-82
2022/05/23 00:01:52;;;;;;;5.13;2.53;;;;;;;15.63;77.55;100061.13;682762;28;1903;-81
2022/05/23 00:02:13;;;;;;;6.22;2.80;;;;;;;15.70;76.93;100049.47;680668;29;1107;-81
2022/05/23 00:02:36;;;;;;;4.95;2.60;;;;;;;15.72;78.50;100059.97;683927;28;1292;-81
2022/05/23 00:02:58;;;;;;;5.28;2.70;;;;;;;15.75;76.46;100042.25;686676;28;1364;-81
2022/05/23 00:03:36;;;;;;;4.10;2.50;;;;;;;15.79;76.94;100072.00;683379;28;1547;-81
2022/05/23 00:03:56;;;;;;;4.97;2.58;;;;;;;15.86;75.46;100046.31;681580;28;1567;-81
2022/05/23 00:04:23;;;;;;;5.47;2.60;;;;;;;15.86;76.15;100039.25;674736;28;4338;-81
2022/05/23 00:05:04;;;;;;;5.15;2.53;;;;;;;15.86;79.24;100044.53;689081;28;1151;-81
2022/05/23 00:05:35;;;;;;;5.07;2.72;;;;;;;15.83;78.61;100039.38;688105;28;1226;-81
2022/05/23 00:05:55;;;;;;;4.63;2.70;;;;;;;15.82;78.92;100042.91;689213;28;1100;-81
2022/05/23 00:06:25;;;;;;;5.72;2.80;;;;;;;15.78;80.04;100039.53;688645;28;1299;-81
2022/05/23 00:06:54;;;;;;;4.85;2.60;;;;;;;15.78;78.75;100057.09;685540;28;1427;-81
2022/05/23 00:07:30;;;;;;;5.50;2.85;;;;;;;15.75;79.06;100057.22;684112;28;4308;-81
2022/05/23 00:07:51;;;;;;;4.97;2.53;;;;;;;15.74;78.51;100048.47;686687;28;1863;-81
2022/05/23 00:08:15;;;;;;;5.32;2.45;;;;;;;15.72;78.00;100073.13;686316;28;1646;-81
2022/05/23 00:08:57;;;;;;;4.57;2.65;;;;;;;15.73;79.40;100064.28;683279;28;1677;-81
2022/05/23 00:09:23;;;;;;;4.85;2.50;;;;;;;15.72;79.24;100044.16;681583;28;1518;-81
2022/05/23 00:09:44;;;;;;;5.07;2.50;;;;;;;15.72;78.59;100057.31;681997;28;1332;-81
2022/05/23 00:10:07;;;;;;;5.53;2.50;;;;;;;15.74;78.14;100047.56;680394;28;4365;-81
2022/05/23 00:10:33;;;;;;;4.75;2.60;;;;;;;15.73;77.83;100065.16;683406;28;1804;-81
2022/05/23 00:11:04;;;;;;;5.35;2.60;;;;;;;15.72;77.31;100046.78;685434;28;1693;-81
2022/05/23 00:11:25;;;;;;;6.13;2.88;;;;;;;15.74;77.32;100050.22;686590;28;1954;-82
2022/05/23 00:11:48;;;;;;;6.25;2.78;;;;;;;15.73;77.26;100044.09;685872;28;1522;-80
2022/05/23 00:12:12;;;;;;;5.13;2.90;;;;;;;15.74;77.66;100056.34;686095;28;976;-81
2022/05/23 00:12:33;;;;;;;5.78;2.78;;;;;;;15.74;76.84;100044.94;684032;28;1690;-81
2022/05/23 00:13:00;;;;;;;5.60;2.65;;;;;;;15.75;77.33;100049.31;683309;28;1457;-81
2022/05/23 00:13:20;;;;;;;5.15;2.70;;;;;;;15.75;76.98;100063.31;683105;28;6284;-81
2022/05/23 00:13:42;;;;;;;4.97;2.83;;;;;;;15.76;76.98;100057.16;685241;28;1457;-81
2022/05/23 00:14:06;;;;;;;5.20;2.97;;;;;;;15.75;76.68;100055.41;684617;28;1371;-81
2022/05/23 00:14:28;;;;;;;5.55;2.78;;;;;;;15.76;76.35;100054.50;684188;28;1295;-81
2022/05/23 00:14:56;;;;;;;5.65;2.65;;;;;;;15.77;76.86;100060.63;681069;28;1657;-81
2022/05/23 00:15:19;;;;;;;4.85;2.58;;;;;;;15.77;76.18;100055.38;680554;28;1490;-82
2022/05/23 00:15:44;;;;;;;5.50;2.85;;;;;;;15.78;76.10;100051.81;679521;29;1531;-81
2022/05/23 00:16:15;;;;;;;4.68;2.67;;;;;;;15.76;75.77;100049.25;682208;28;4313;-81
2022/05/23 00:16:50;;;;;;;4.50;2.65;;;;;;;15.77;76.40;100071.19;684395;28;3577;-81
2022/05/23 00:17:23;;;;;;;5.68;2.65;;;;;;;15.77;75.91;100063.28;685003;28;1294;-81
2022/05/23 00:17:46;;;;;;;5.45;2.70;;;;;;;15.79;75.98;100049.16;688141;28;1510;-81
2022/05/23 00:18:07;;;;;;;6.85;2.70;;;;;;;15.81;76.07;100054.38;683846;28;1424;-81
2022/05/23 00:18:30;;;;;;;5.30;2.70;;;;;;;15.81;76.24;100062.28;684263;28;1794;-81
2022/05/23 00:18:57;;;;;;;4.47;2.50;;;;;;;15.81;76.24;100062.28;685030;28;1816;-82
2022/05/23 00:19:25;;;;;;;6.10;2.95;;;;;;;15.78;77.73;100047.44;684316;28;4314;-82
2022/05/23 00:19:48;;;;;;;5.35;2.72;;;;;;;15.80;77.44;100042.13;686626;28;1538;-81
2022/05/23 00:20:15;;;;;;;5.38;3.00;;;;;;;15.80;77.62;100042.97;687313;28;1461;-81
2022/05/23 00:20:37;;;;;;;4.97;2.60;;;;;;;15.79;77.81;100043.88;681140;29;1237;-81
2022/05/23 00:21:00;;;;;;;5.17;2.83;;;;;;;15.78;77.35;100044.78;678349;29;1197;-83
2022/05/23 00:21:21;;;;;;;5.10;2.67;;;;;;;15.79;77.90;100046.53;681484;28;1439;-82
2022/05/23 00:21:45;;;;;;;6.00;2.80;;;;;;;15.79;77.57;100037.75;685337;28;1382;-81
2022/05/23 00:22:09;;;;;;;4.43;2.65;;;;;;;15.81;78.09;100054.38;685552;28;4568;-81
2022/05/23 00:22:38;;;;;;;4.80;2.80;;;;;;;15.80;77.94;100044.78;682836;28;1301;-81
2022/05/23 00:23:01;;;;;;;4.95;2.63;;;;;;;15.79;80.10;100056.19;681901;28;1916;-81
2022/05/23 00:23:30;;;;;;;5.50;2.60;;;;;;;15.78;78.89;100062.38;685481;28;1961;-80
2022/05/23 00:24:14;;;;;;;5.32;2.70;;;;;;;15.75;78.39;100036.97;687864;28;1391;-81
2022/05/23 00:24:35;;;;;;;5.13;2.53;;;;;;;15.74;80.76;100040.56;689268;28;872;-81
2022/05/23 00:24:56;;;;;;;4.97;2.67;;;;;;;15.72;81.26;100047.63;685653;28;1446;-82
2022/05/23 00:25:16;;;;;;;4.03;2.40;;;;;;;15.69;79.22;100047.75;685290;28;4335;-81
2022/05/23 00:25:41;;;;;;;4.53;2.83;;;;;;;15.70;79.38;100043.34;686677;28;1462;-82
2022/05/23 00:26:14;;;;;;;4.75;2.55;;;;;;;15.72;78.78;100054.69;684371;28;1365;-82
2022/05/23 00:26:36;;;;;;;5.00;2.80;;;;;;;15.68;78.39;100035.47;684978;28;1257;-81
2022/05/23 00:26:57;;;;;;;5.20;2.65;;;;;;;15.62;77.87;100051.53;686358;28;1725;-81
2022/05/23 00:27:23;;;;;;;5.65;2.63;;;;;;;15.57;77.79;100035.88;682445;28;1406;-81
2022/05/23 00:27:50;;;;;;;5.38;2.63;;;;;;;15.58;77.76;100037.59;685394;28;1304;-81
2022/05/23 00:28:16;;;;;;;5.80;2.70;;;;;;;15.58;77.56;100060.44;686124;28;4329;-81
2022/05/23 00:28:52;;;;;;;5.55;2.80;;;;;;;15.54;77.35;100035.97;682873;28;1392;-82
2022/05/23 00:29:33;;;;;;;3.92;2.38;;;;;;;15.49;77.00;100024.72;691330;28;1517;-82
2022/05/23 00:30:07;;;;;;;5.18;2.72;;;;;;;15.48;78.23;100046.75;690804;28;1385;-81
2022/05/23 00:30:37;;;;;;;5.28;2.65;;;;;;;15.48;79.09;100050.22;690693;28;1735;-81
2022/05/23 00:31:00;;;;;;;4.85;2.60;;;;;;;15.46;77.98;100028.34;687161;28;1472;-81
2022/05/23 00:31:26;;;;;;;4.80;2.58;;;;;;;15.45;77.67;100024.00;679266;28;4863;-82
2022/05/23 00:35:20;;;;;;;4.55;2.63;;;;;;;15.42;80.07;100029.34;692576;28;1213;-81
2022/05/23 00:35:54;;;;;;;4.13;2.45;;;;;;;15.43;79.24;100024.97;688335;28;1355;-81
2022/05/23 00:36:20;;;;;;;4.70;2.53;;;;;;;15.40;79.30;100020.66;685689;28;1253;-81
2022/05/23 00:36:50;;;;;;;4.60;2.65;;;;;;;15.41;78.18;100021.50;684029;28;1416;-81
2022/05/23 00:37:20;;;;;;;4.72;2.50;;;;;;;15.42;78.54;100029.34;681346;28;4361;-80
2022/05/23 00:37:49;;;;;;;4.35;2.60;;;;;;;15.41;78.34;100017.13;685535;28;974;-81
2022/05/23 00:38:14;;;;;;;5.05;2.70;;;;;;;15.41;78.02;100024.16;685364;28;1742;-81
2022/05/23 00:38:35;;;;;;;5.35;2.72;;;;;;;15.39;78.33;100018.94;680437;29;1310;-81
2022/05/23 00:38:55;;;;;;;5.43;2.67;;;;;;;15.40;78.26;100014.53;683506;28;4748;-80
2022/05/23 00:39:16;;;;;;;5.47;2.90;;;;;;;15.40;77.68;100015.41;686011;28;1141;-81
2022/05/23 00:39:37;;;;;;;4.53;2.77;;;;;;;15.40;78.20;100009.28;684057;28;1397;-81
2022/05/23 00:40:07;;;;;;;4.00;2.40;;;;;;;15.41;78.22;100014.50;685036;28;1476;-81
2022/05/23 00:40:38;;;;;;;6.43;2.90;;;;;;;15.39;78.05;100007.56;680874;28;4854;-81
2022/05/23 00:43:26;;;;;;;4.80;2.50;;;;;;;15.36;79.55;99999.75;689127;28;4314;-80
2022/05/23 00:44:05;;;;;;;6.00;2.90;;;;;;;15.38;80.04;100008.47;686830;28;1474;-80
2022/05/23 00:44:30;;;;;;;4.57;2.60;;;;;;;15.37;79.41;100004.97;688736;28;1095;-80
2022/05/23 00:44:55;;;;;;;4.28;2.60;;;;;;;15.40;79.69;99993.47;685858;28;1493;-80
2022/05/23 00:45:23;;;;;;;6.22;2.78;;;;;;;15.40;81.11;100004.00;680930;29;1777;-80
2022/05/23 00:45:54;;;;;;;4.72;2.78;;;;;;;15.40;80.68;100004.00;685370;28;1400;-80
2022/05/23 00:46:14;;;;;;;4.63;2.47;;;;;;;15.38;79.55;100006.69;681965;28;4306;-80
2022/05/23 00:46:35;;;;;;;5.07;2.87;;;;;;;15.39;79.36;100002.28;686272;28;1694;-79
2022/05/23 00:47:01;;;;;;;5.35;3.15;;;;;;;15.40;80.62;100004.00;683927;28;1808;-79
2022/05/23 00:47:26;;;;;;;4.45;2.72;;;;;;;15.41;79.69;100003.94;682465;28;1653;-79
2022/05/23 00:47:48;;;;;;;4.82;2.72;;;;;;;15.42;78.10;100007.44;686420;28;1225;-80
2022/05/23 00:48:16;;;;;;;4.70;2.90;;;;;;;15.42;77.47;100010.91;684604;28;1438;-80
2022/05/23 00:48:40;;;;;;;6.20;3.00;;;;;;;15.43;78.57;100007.38;686964;28;1621;-80
2022/05/23 00:49:08;;;;;;;4.90;2.85;;;;;;;15.43;78.35;100007.38;682949;28;4432;-80
2022/05/23 00:49:34;;;;;;;5.13;2.85;;;;;;;15.45;77.88;100009.94;683926;28;1521;-81
2022/05/23 00:49:59;;;;;;;5.88;3.30;;;;;;;15.46;77.59;100009.03;687531;28;1492;-80
2022/05/23 00:50:20;;;;;;;4.85;2.70;;;;;;;15.45;77.84;100012.59;689267;28;1522;-80
2022/05/23 00:50:49;;;;;;;5.45;2.78;;;;;;;15.45;77.67;100009.94;691466;28;1598;-80
2022/05/23 00:51:13;;;;;;;5.07;2.75;;;;;;;15.46;77.42;100009.03;688207;28;1405;-81
2022/05/23 00:51:34;;;;;;;6.13;2.70;;;;;;;15.47;77.55;100010.78;688330;28;1568;-80
2022/05/23 00:52:07;;;;;;;5.07;2.90;;;;;;;15.47;77.36;100008.13;685232;28;1298;-80
2022/05/23 00:52:37;;;;;;;5.30;2.72;;;;;;;15.47;77.50;100006.34;680415;28;4769;-80
2022/05/23 00:53:00;;;;;;;4.60;2.63;;;;;;;15.47;77.44;100008.13;685430;28;1357;-81
2022/05/23 00:53:28;;;;;;;5.15;2.88;;;;;;;15.47;77.42;100010.78;682562;28;1566;-81
2022/05/23 00:53:53;;;;;;;5.32;2.70;;;;;;;15.48;77.10;100013.34;683328;28;1788;-79
2022/05/23 00:54:15;;;;;;;5.22;2.60;;;;;;;15.47;76.67;100006.34;679699;29;1731;-80
2022/05/23 00:54:40;;;;;;;5.13;2.65;;;;;;;15.48;76.74;100007.22;682805;28;1517;-81
2022/05/23 00:55:12;;;;;;;5.90;2.80;;;;;;;15.46;76.86;100009.91;676983;28;4485;-80
2022/05/23 00:55:51;;;;;;;4.88;2.85;;;;;;;15.48;76.93;100012.50;682035;28;1692;-80
2022/05/23 00:56:15;;;;;;;5.22;2.70;;;;;;;15.46;77.11;100009.03;678553;28;1336;-80
2022/05/23 00:56:45;;;;;;;4.85;2.70;;;;;;;15.48;77.43;100012.50;680125;29;1441;-81
2022/05/23 00:57:08;;;;;;;4.65;2.70;;;;;;;15.48;78.57;100007.22;679797;29;1381;-80
2022/05/23 00:57:48;;;;;;;4.80;2.60;;;;;;;15.45;79.52;100013.47;681889;28;1803;-80
2022/05/23 00:58:22;;;;;;;4.38;2.60;;;;;;;15.47;79.61;100010.78;681906;28;4594;-80
2022/05/23 00:58:49;;;;;;;5.32;3.28;;;;;;;15.48;78.84;100012.50;681365;28;1245;-80
2022/05/23 00:59:19;;;;;;;5.10;2.60;;;;;;;15.46;78.91;100003.78;684748;28;1387;-80
2022/05/23 00:59:40;;;;;;;6.47;2.75;;;;;;;15.45;78.30;100002.06;683998;28;1308;-81
2022/05/23 01:00:05;;;;;;;4.78;2.60;;;;;;;15.45;79.48;100007.31;681894;28;1672;-80
2022/05/23 01:00:25;;;;;;;5.82;2.88;;;;;;;15.46;80.23;100009.03;678116;29;1555;-80
2022/05/23 01:00:47;;;;;;;5.00;2.70;;;;;;;15.44;79.49;100006.47;678434;29;1344;-80
2022/05/23 01:01:14;;;;;;;4.78;2.70;;;;;;;15.44;78.44;100006.47;674481;29;4378;-81
2022/05/23 01:01:37;;;;;;;5.20;2.92;;;;;;;15.44;78.42;100005.63;678302;29;1304;-80
2022/05/23 01:02:01;;;;;;;5.25;2.80;;;;;;;15.44;78.53;100014.38;678232;29;1911;-80
2022/05/23 01:02:38;;;;;;;5.30;2.72;;;;;;;15.42;80.58;100012.69;680703;28;1841;-81
2022/05/23 01:03:05;;;;;;;5.15;2.80;;;;;;;15.41;79.75;100011.84;684361;28;1659;-81
2022/05/23 01:03:32;;;;;;;5.72;2.95;;;;;;;15.42;80.42;100017.97;683295;28;1542;-80
2022/05/23 01:03:56;;;;;;;5.55;3.00;;;;;;;15.40;81.77;100017.19;683779;28;1359;-81
2022/05/23 01:04:18;;;;;;;4.45;2.88;;;;;;;15.38;83.95;100027.78;683347;28;4366;-80
2022/05/23 01:04:49;;;;;;;;;;;;;;;;;;;;;
2022/05/23 01:05:20;;;;;;;4.80;2.88;;;;;;;15.38;80.85;100013.72;685863;28;1437;-80
2022/05/23 01:05:41;;;;;;;5.47;2.80;;;;;;;15.35;80.55;100042.81;686546;28;1331;-81
2022/05/23 01:06:05;;;;;;;5.55;2.85;;;;;;;15.38;79.74;100037.44;685772;28;1389;-80
2022/05/23 01:06:31;;;;;;;6.65;2.90;;;;;;;15.35;79.56;100012.06;687642;28;1506;-80
2022/05/23 01:06:52;;;;;;;5.22;2.90;;;;;;;15.32;79.24;100031.44;686100;28;1311;-80
2022/05/23 01:07:26;;;;;;;3.70;2.58;;;;;;;15.33;78.83;100033.19;684806;28;4295;-80
2022/05/23 01:08:01;;;;;;;4.65;2.70;;;;;;;15.33;80.33;100030.53;686547;28;1412;-80
2022/05/23 01:08:32;;;;;;;4.80;2.83;;;;;;;15.34;80.54;100052.50;685053;28;1475;-81
2022/05/23 01:08:55;;;;;;;4.82;2.90;;;;;;;15.34;82.03;100028.78;683911;28;1296;-80
2022/05/23 01:09:24;;;;;;;6.05;3.13;;;;;;;15.34;81.83;100020.88;683066;28;1562;-81
2022/05/23 01:09:45;;;;;;;5.38;2.70;;;;;;;15.33;81.14;100022.66;684755;28;963;-83
2022/05/23 01:10:10;;;;;;;5.20;2.80;;;;;;;15.31;84.82;100019.22;682079;28;4384;-81
2022/05/23 01:10:43;;;;;;;4.95;2.90;;;;;;;15.30;84.44;100017.50;687358;28;1482;-80
2022/05/23 01:11:09;;;;;;;5.78;2.88;;;;;;;15.30;82.77;100014.84;688354;28;1590;-81
2022/05/23 01:11:31;;;;;;;4.80;2.53;;;;;;;15.27;81.92;100022.88;685408;28;1508;-81
2022/05/23 01:11:54;;;;;;;5.27;2.77;;;;;;;15.30;81.77;100014.00;685946;28;1577;-81
2022/05/23 01:12:18;;;;;;;5.88;2.80;;;;;;;15.26;80.99;100007.97;686769;28;1551;-80
2022/05/23 01:12:41;;;;;;;6.57;2.95;;;;;;;15.27;81.33;100009.69;683335;28;1562;-81
2022/05/23 01:13:03;;;;;;;4.88;2.80;;;;;;;15.28;81.86;100027.19;685020;28;4384;-80
2022/05/23 01:13:27;;;;;;;5.05;2.90;;;;;;;15.31;81.04;100042.03;681289;28;1394;-81
2022/05/23 01:13:49;;;;;;;5.72;2.80;;;;;;;15.29;81.32;100023.66;688554;28;1604;-81
2022/05/23 01:14:15;;;;;;;4.90;2.60;;;;;;;15.28;80.70;100014.03;684522;28;1260;-81
2022/05/23 01:14:45;;;;;;;5.00;2.80;;;;;;;15.29;82.54;100007.84;682411;28;1743;-81
2022/05/23 01:15:32;;;;;;;6.07;2.70;;;;;;;15.28;80.80;100019.31;681855;28;1486;-81
2022/05/23 01:15:56;;;;;;;5.93;2.85;;;;;;;15.29;81.42;100013.13;684119;28;1418;-81
2022/05/23 01:16:24;;;;;;;5.68;3.10;;;;;;;15.25;82.18;100019.41;688223;28;4931;-80
2022/05/23 01:16:46;;;;;;;4.60;2.83;;;;;;;15.24;83.13;100033.47;687946;28;1588;-81
2022/05/23 01:17:11;;;;;;;5.65;2.88;;;;;;;15.24;82.11;100019.47;685493;28;1652;-81
2022/05/23 01:17:32;;;;;;;5.38;2.80;;;;;;;15.24;82.22;100041.38;687529;28;1921;-80
2022/05/23 01:18:03;;;;;;;5.22;3.03;;;;;;;15.25;81.89;100011.50;683332;28;1714;-81
2022/05/23 01:18:24;;;;;;;5.25;3.13;;;;;;;15.25;83.28;100029.94;686702;28;1720;-81
2022/05/23 01:18:48;;;;;;;5.83;3.13;;;;;;;15.24;83.13;100020.31;683620;28;1317;-81
2022/05/23 01:19:12;;;;;;;5.47;3.00;;;;;;;15.23;83.47;100029.16;683170;28;4386;-80
2022/05/23 01:19:39;;;;;;;5.32;3.08;;;;;;;15.22;83.48;100027.44;681033;28;1332;-81
2022/05/23 01:20:05;;;;;;;6.10;3.10;;;;;;;15.23;83.35;100023.00;682792;28;1316;-81
2022/05/23 01:20:30;;;;;;;5.40;3.30;;;;;;;15.21;84.27;100024.84;684837;28;1328;-81
2022/05/23 01:21:01;;;;;;;5.43;3.20;;;;;;;15.22;85.04;100014.25;687781;28;1600;-81
2022/05/23 01:21:46;;;;;;;4.90;2.90;;;;;;;15.20;87.15;100021.34;686782;28;1566;-81
2022/05/23 01:22:41;;;;;;;4.90;2.95;;;;;;;15.17;87.04;100018.81;685551;28;4551;-81
2022/05/23 01:23:29;;;;;;;4.25;2.65;;;;;;;15.12;85.65;100004.97;687340;28;1433;-81
2022/05/23 01:24:48;;;;;;;5.20;3.13;;;;;;;15.13;87.84;100043.53;689906;28;1476;-80
2022/05/23 01:25:21;;;;;;;5.43;2.80;;;;;;;15.14;84.42;100003.97;692071;28;4628;-80
2022/05/23 01:25:48;;;;;;;5.18;2.80;;;;;;;15.11;83.57;99998.81;691957;28;1477;-79
2022/05/23 01:26:31;;;;;;;4.32;2.88;;;;;;;15.11;83.49;99997.97;687370;28;1634;-79
2022/05/23 01:27:08;;;;;;;6.60;3.00;;;;;;;15.09;84.91;99999.78;682819;28;1423;-81
2022/05/23 01:27:33;;;;;;;5.15;2.95;;;;;;;15.09;85.44;100019.09;684328;28;1879;-80
2022/05/23 01:27:56;;;;;;;4.80;3.05;;;;;;;15.08;84.68;99998.09;685903;28;1345;-80
2022/05/23 01:28:17;;;;;;;4.80;3.05;;;;;;;15.07;85.41;99993.72;688605;28;4407;-80
2022/05/23 01:28:43;;;;;;;5.05;3.00;;;;;;;15.09;86.49;100023.47;689248;28;1361;-80
2022/05/23 01:29:15;;;;;;;5.15;2.97;;;;;;;15.07;85.81;99999.00;684191;28;1157;-80
2022/05/23 01:29:47;;;;;;;6.35;2.80;;;;;;;15.03;85.01;100010.53;683493;28;1447;-80
2022/05/23 01:30:19;;;;;;;5.00;2.95;;;;;;;15.07;85.60;99991.94;686306;28;1450;-80
2022/05/23 01:30:57;;;;;;;6.10;3.28;;;;;;;15.03;86.41;100018.44;686715;28;1537;-80
2022/05/23 01:31:24;;;;;;;7.20;3.13;;;;;;;15.03;84.77;99997.38;683426;28;4725;-80
2022/05/23 01:31:51;;;;;;;5.22;2.97;;;;;;;15.03;84.66;99994.75;686162;28;1477;-80
2022/05/23 01:32:24;;;;;;;4.78;2.90;;;;;;;15.04;85.15;100007.00;683078;28;1436;-80
2022/05/23 01:33:12;;;;;;;6.20;3.10;;;;;;;15.07;85.58;100017.41;682606;28;1221;-80
2022/05/23 01:33:36;;;;;;;6.38;3.03;;;;;;;15.03;86.48;99985.06;683114;28;1562;-82
2022/05/23 01:34:08;;;;;;;6.10;3.13;;;;;;;15.00;86.02;100013.28;682611;28;1452;-80
2022/05/23 01:34:32;;;;;;;4.90;3.00;;;;;;;14.98;84.93;100006.28;677453;28;5089;-80
2022/05/23 01:35:10;;;;;;;5.80;3.00;;;;;;;15.03;86.31;99987.69;684046;28;1614;-80
2022/05/23 01:35:32;;;;;;;5.53;3.00;;;;;;;15.00;86.04;100000.97;685779;28;1855;-80
2022/05/23 01:35:59;;;;;;;4.88;3.00;;;;;;;15.02;85.64;100008.81;686857;28;1457;-80
2022/05/23 01:36:21;;;;;;;5.68;2.92;;;;;;;14.98;84.67;100008.91;685506;28;1632;-80
2022/05/23 01:36:42;;;;;;;4.97;2.80;;;;;;;14.96;85.55;100002.81;689135;28;1896;-80
2022/05/23 01:37:05;;;;;;;5.38;3.10;;;;;;;14.99;85.27;99996.59;688840;28;4315;-81
2022/05/23 01:37:44;;;;;;;5.78;3.15;;;;;;;14.98;87.13;100008.91;688298;28;1256;-80
2022/05/23 01:38:12;;;;;;;4.90;3.08;;;;;;;14.95;86.24;100006.41;686437;28;1468;-81
2022/05/23 01:38:47;;;;;;;5.15;2.85;;;;;;;14.96;85.23;99989.66;686617;28;1279;-81
2022/05/23 01:39:19;;;;;;;5.10;2.78;;;;;;;14.94;85.13;100004.66;685851;28;1443;-81
2022/05/23 01:39:45;;;;;;;4.38;2.90;;;;;;;14.93;85.57;99996.81;685992;28;1365;-80
2022/05/23 01:40:10;;;;;;;5.65;3.10;;;;;;;14.93;85.95;99988.94;688117;28;4347;-81
2022/05/23 01:40:58;;;;;;;5.90;3.22;;;;;;;14.95;87.22;99985.34;687317;28;1421;-80
2022/05/23 01:41:25;;;;;;;5.55;3.22;;;;;;;14.94;87.04;100012.56;688435;28;1450;-81
2022/05/23 01:42:06;;;;;;;5.65;3.10;;;;;;;14.93;86.93;100000.31;681863;28;1981;-80
2022/05/23 01:42:27;;;;;;;4.68;2.97;;;;;;;14.92;85.53;99982.78;685516;28;1323;-81
2022/05/23 01:42:49;;;;;;;4.28;2.83;;;;;;;14.90;85.62;99987.25;685866;28;1442;-80
2022/05/23 01:43:11;;;;;;;4.95;3.20;;;;;;;14.90;85.68;99984.63;685294;28;4340;-81
2022/05/23 01:43:33;;;;;;;4.80;3.25;;;;;;;14.93;86.16;99983.66;684615;28;1586;-81
2022/05/23 01:44:28;;;;;;;4.78;3.10;;;;;;;14.92;87.55;99985.41;685581;28;855;-81
2022/05/23 01:45:08;;;;;;;5.65;3.17;;;;;;;14.90;86.64;99989.03;683234;28;1330;-80
2022/05/23 01:45:40;;;;;;;5.57;3.10;;;;;;;14.93;87.36;99979.25;683615;28;1401;-80
2022/05/23 01:46:13;;;;;;;6.13;3.40;;;;;;;14.91;89.64;99981.09;675642;28;4435;-80
2022/05/23 01:47:16;;;;;;;6.72;3.47;;;;;;;14.90;88.45;99979.38;686744;28;1809;-81
2022/05/23 01:47:53;;;;;;;5.50;3.30;;;;;;;14.91;87.59;99986.34;690073;28;1323;-81
2022/05/23 01:48:14;;;;;;;5.38;3.17;;;;;;;14.90;87.67;100000.41;689132;28;1343;-81
2022/05/23 01:48:40;;;;;;;6.07;3.45;;;;;;;14.91;90.51;99983.72;686526;28;1368;-81
2022/05/23 01:49:01;;;;;;;6.05;3.45;;;;;;;14.91;89.77;99988.09;685702;28;4309;-82
2022/05/23 01:49:22;;;;;;;5.22;3.13;;;;;;;14.88;88.28;99983.81;687162;28;1270;-80
2022/05/23 01:49:42;;;;;;;5.20;3.30;;;;;;;14.88;87.77;99986.44;685453;28;1502;-80
2022/05/23 01:50:23;;;;;;;5.57;3.20;;;;;;;14.87;88.44;99984.75;686052;28;1277;-80
2022/05/23 01:50:55;;;;;;;4.80;3.00;;;;;;;14.89;86.66;99992.56;682777;28;1675;-81
2022/05/23 01:51:15;;;;;;;4.72;3.10;;;;;;;14.88;86.40;99986.44;684689;28;1924;-81
2022/05/23 01:51:36;;;;;;;4.93;3.43;;;;;;;14.89;87.04;99992.56;683935;28;1597;-80
2022/05/23 01:51:57;;;;;;;6.20;3.75;;;;;;;14.89;88.71;99985.53;683384;28;1471;-80
2022/05/23 01:52:24;;;;;;;7.00;3.40;;;;;;;14.88;87.35;99986.44;682394;28;4993;-80
2022/05/23 01:52:45;;;;;;;5.68;3.20;;;;;;;14.87;87.08;99984.75;685840;28;1315;-81
2022/05/23 01:53:27;;;;;;;4.72;3.10;;;;;;;14.91;86.67;99985.47;688674;28;1488;-81
2022/05/23 01:53:56;;;;;;;4.93;3.20;;;;;;;14.92;86.08;99993.31;686371;28;1398;-80
2022/05/23 01:54:19;;;;;;;5.38;3.28;;;;;;;14.92;85.26;99990.69;684248;28;1247;-80
2022/05/23 01:54:46;;;;;;;6.22;3.30;;;;;;;14.93;84.81;99991.56;683561;28;1400;-79
2022/05/23 01:55:08;;;;;;;5.72;3.45;;;;;;;14.94;84.67;100007.31;682871;28;4369;-80
2022/05/23 01:55:29;;;;;;;6.80;3.63;;;;;;;14.92;84.49;100003.84;678746;29;1247;-81
2022/05/23 01:56:04;;;;;;;5.15;3.35;;;;;;;14.95;83.24;100018.69;676518;29;1356;-80
2022/05/23 01:56:41;;;;;;;6.75;3.28;;;;;;;14.93;83.60;99984.53;682061;28;1599;-80
2022/05/23 01:57:11;;;;;;;5.70;3.38;;;;;;;14.96;84.03;100007.25;686188;28;1379;-81
2022/05/23 01:57:35;;;;;;;4.75;3.40;;;;;;;14.97;85.18;99994.03;686186;28;1387;-81
2022/05/23 01:57:55;;;;;;;5.90;3.55;;;;;;;14.97;84.52;99999.28;686200;28;1271;-81
2022/05/23 02:01:13;;;;;;;6.67;3.40;;;;;;;14.99;83.95;99993.97;681646;28;4342;-80
2022/05/23 02:01:21;;;;;;;6.05;3.55;;;;;;;15.05;84.91;100004.31;688691;28;4910;-80
2022/05/23 02:01:53;;;;;;;5.50;2.95;;;;;;;15.05;84.09;99996.41;692225;28;1964;-81
2022/05/23 02:02:26;;;;;;;5.07;3.25;;;;;;;15.05;84.20;100004.31;688117;28;1912;-81
2022/05/23 02:02:47;;;;;;;5.18;3.15;;;;;;;15.06;84.27;100005.16;688593;28;1246;-82
2022/05/23 02:03:10;;;;;;;5.03;3.30;;;;;;;15.06;83.91;99999.91;685716;28;1458;-82
2022/05/23 02:03:30;;;;;;;5.33;3.40;;;;;;;15.06;83.74;99995.47;680701;29;1510;-81
2022/05/23 02:03:53;;;;;;;5.13;3.22;;;;;;;15.06;84.82;99990.22;682032;28;1289;-81
2022/05/23 02:04:13;;;;;;;5.07;3.27;;;;;;;15.05;85.17;99999.06;682518;28;4305;-81
2022/05/23 02:04:37;;;;;;;5.75;3.17;;;;;;;15.05;84.29;99998.16;680870;29;2309;-81
2022/05/23 02:04:58;;;;;;;5.55;3.35;;;;;;;15.05;84.63;100009.56;683366;28;2343;-81
2022/05/23 02:05:26;;;;;;;5.60;3.20;;;;;;;15.06;84.75;100005.16;684629;28;1552;-81
2022/05/23 02:05:51;;;;;;;5.25;3.20;;;;;;;15.04;84.12;99996.47;681260;28;1842;-81
2022/05/23 02:06:16;;;;;;;6.25;3.30;;;;;;;15.03;83.70;100000.00;686063;28;1399;-81
2022/05/23 02:06:39;;;;;;;4.72;3.10;;;;;;;15.01;83.22;99997.44;688348;28;1345;-81
2022/05/23 02:07:07;;;;;;;4.80;2.92;;;;;;;15.01;82.77;100009.72;674252;28;4396;-81
2022/05/23 02:07:30;;;;;;;5.18;3.00;;;;;;;15.01;84.08;99996.56;682264;28;1375;-82
2022/05/23 02:07:52;;;;;;;5.07;2.90;;;;;;;15.02;83.88;99993.00;681054;28;1304;-82
2022/05/23 02:08:13;;;;;;;6.65;3.20;;;;;;;15.01;84.04;99997.44;685499;28;1252;-81
2022/05/23 02:08:34;;;;;;;5.23;3.20;;;;;;;15.02;84.20;99995.66;682543;28;1409;-81
2022/05/23 02:08:58;;;;;;;5.65;3.20;;;;;;;15.00;85.31;99993.06;684564;28;1475;-81
2022/05/23 02:09:27;;;;;;;5.55;3.20;;;;;;;15.00;86.34;99989.59;684036;28;1690;-81
2022/05/23 02:10:07;;;;;;;5.20;3.17;;;;;;;14.96;87.71;99979.16;681156;28;4480;-81
2022/05/23 02:10:43;;;;;;;5.60;3.30;;;;;;;14.96;86.86;99984.41;682000;28;1383;-82
2022/05/23 02:11:11;;;;;;;4.50;2.90;;;;;;;14.95;86.74;99982.72;680665;28;1613;-81
2022/05/23 02:11:38;;;;;;;5.15;3.22;;;;;;;14.92;86.89;99988.06;681413;29;1498;-81
2022/05/23 02:12:02;;;;;;;5.35;3.28;;;;;;;14.92;86.92;100001.22;680827;28;1782;-81
2022/05/23 02:12:26;;;;;;;5.32;3.05;;;;;;;14.89;86.59;99972.38;680541;29;1358;-81
2022/05/23 02:12:48;;;;;;;5.63;2.80;;;;;;;14.90;87.41;99974.09;683036;28;1430;-81
2022/05/23 02:13:12;;;;;;;5.40;3.40;;;;;;;14.90;87.56;99974.09;682496;28;4307;-81
2022/05/23 02:13:39;;;;;;;4.43;3.00;;;;;;;14.90;86.66;99994.31;681860;28;1433;-81
2022/05/23 02:14:00;;;;;;;5.72;3.08;;;;;;;14.89;86.81;99972.38;680584;28;1483;-81
2022/05/23 02:14:29;;;;;;;5.10;3.10;;;;;;;14.89;85.85;99972.38;680615;29;1969;-81
2022/05/23 02:14:51;;;;;;;4.90;3.17;;;;;;;14.86;86.08;99964.59;677293;29;1437;-81
2022/05/23 02:15:41;;;;;;;5.53;3.35;;;;;;;14.85;87.44;99968.13;680047;29;1561;-81
2022/05/23 02:16:27;;;;;;;4.88;3.53;;;;;;;14.84;87.43;99960.28;682322;28;4953;-81
2022/05/23 02:16:52;;;;;;;4.57;3.10;;;;;;;14.82;86.95;99966.44;684060;28;1273;-81
2022/05/23 02:17:17;;;;;;;4.85;3.20;;;;;;;14.84;88.14;99962.91;684676;28;1572;-81
2022/05/23 02:17:40;;;;;;;5.40;3.20;;;;;;;14.84;87.62;99976.06;680611;28;1848;-82
2022/05/23 02:18:02;;;;;;;5.18;3.17;;;;;;;14.81;87.41;99959.50;685303;28;1292;-81
2022/05/23 02:18:23;;;;;;;4.47;3.10;;;;;;;14.82;88.88;99965.59;687531;28;1357;-82
2022/05/23 02:18:44;;;;;;;4.90;2.95;;;;;;;14.82;89.84;99963.81;683075;28;1491;-82
2022/05/23 02:19:09;;;;;;;5.15;3.10;;;;;;;14.82;88.87;99958.56;686067;28;4663;-81
2022/05/23 02:19:45;;;;;;;5.38;3.30;;;;;;;14.81;90.77;99963.88;681717;28;1823;-81
2022/05/23 02:20:15;;;;;;;5.15;3.22;;;;;;;14.83;90.20;99962.06;683116;28;1392;-81
2022/05/23 02:20:38;;;;;;;5.70;3.47;;;;;;;14.80;90.10;99955.13;684552;28;1923;-81